Time;durP1;ratioP1;P1;durP2;ratioP2;P2;SDS_P1;SDS_P2;PMS_P1;PMS_P2;Temp;Humidity;BMP_temperature;BMP_pressure;BME280_temperature;BME280_humidity;BME280_pressure;Samples;Min_cycle;Max_cycle;Signal;HPM_P1;HPM_P2
2023/11/10 00:00:16;;;;;;;;;;;;;;;8.93;73.56;98575.34;1088301;54;1055;-80
2023/11/10 00:01:19;;;;;;;;;;;;;;;8.89;73.40;98565.00;1088420;54;1001;-80
2023/11/10 00:02:21;;;;;;;;;;;;;;;8.91;73.29;98575.53;1088343;46;1840;-80
2023/11/10 00:03:24;;;;;;;;;;;;;;;8.87;73.64;98566.19;1088266;47;1004;-80
2023/11/10 00:04:25;;;;;;;;;;;;;;;8.84;73.42;98567.38;1088341;54;925;-80
2023/11/10 00:05:29;;;;;;;;;;;;;;;8.90;73.53;98566.69;1088380;47;908;-80
2023/11/10 00:06:31;;;;;;;;;;;;;;;8.93;73.28;98562.00;1088386;54;940;-79
2023/11/10 00:07:34;;;;;;;;;;;;;;;8.96;73.22;98556.34;1088092;47;974;-78
2023/11/10 00:08:35;;;;;;;;;;;;;;;8.90;73.50;98552.53;1088380;54;951;-80
2023/11/10 00:09:38;;;;;;;;;;;;;;;8.94;73.38;98553.03;1088305;47;1164;-80
2023/11/10 00:10:39;;;;;;;;;;;;;;;8.88;73.58;98565.19;1088279;47;991;-79
2023/11/10 00:11:42;;;;;;;;;;;;;;;8.93;73.57;98562.00;1088283;47;893;-79
2023/11/10 00:12:45;;;;;;;;;;;;;;;8.87;73.29;98559.03;1088399;47;919;-80
2023/11/10 00:13:46;;;;;;;;;;;;;;;8.90;73.33;98553.34;1088407;47;977;-81
2023/11/10 00:14:47;;;;;;;;;;;;;;;8.83;73.38;98563.03;1088374;47;961;-81
2023/11/10 00:15:50;;;;;;;;;;;;;;;8.87;73.41;98564.38;1088252;47;975;-80
2023/11/10 00:16:51;;;;;;;;;;;;;;;8.93;73.18;98567.34;1088376;54;1060;-79
2023/11/10 00:17:53;;;;;;;;;;;;;;;8.98;73.48;98552.50;1088324;47;1093;-80
2023/11/10 00:18:56;;;;;;;;;;;;;;;8.92;73.29;98558.53;1088222;47;954;-80
2023/11/10 00:19:58;;;;;;;;;;;;;;;8.95;73.24;98554.69;1088299;47;1322;-80
2023/11/10 00:21:01;;;;;;;;;;;;;;;8.89;73.53;98562.34;1088183;54;991;-80
2023/11/10 00:22:04;;;;;;;;;;;;;;;8.89;73.73;98554.34;1088118;47;1869;-80
2023/11/10 00:23:08;;;;;;;;;;;;;;;8.92;73.47;98557.69;1088209;47;859;-80
2023/11/10 00:24:09;;;;;;;;;;;;;;;8.77;74.01;98565.53;1088213;47;962;-79
2023/11/10 00:25:11;;;;;;;;;;;;;;;8.77;73.74;98561.06;1087812;47;961;-79
2023/11/10 00:26:21;;;;;;;;;;;;;;;8.84;73.73;98564.69;1088040;47;904;-80
2023/11/10 00:27:25;;;;;;;;;;;;;;;8.84;73.39;98564.69;1088163;47;999;-79
2023/11/10 00:28:29;;;;;;;;;;;;;;;8.87;73.63;98571.53;1088146;54;960;-80
2023/11/10 00:29:29;;;;;;;;;;;;;;;8.88;73.44;98573.19;1088227;47;1279;-79
2023/11/10 00:30:34;;;;;;;;;;;;;;;8.82;73.75;98572.03;1088230;54;1007;-79
2023/11/10 00:31:35;;;;;;;;;;;;;;;8.85;73.52;98574.38;1087787;54;1154;-80
2023/11/10 00:32:39;;;;;;;;;;;;;;;8.76;73.67;98567.38;1088204;54;995;-79
2023/11/10 00:33:40;;;;;;;;;;;;;;;8.76;73.68;98575.38;1088255;47;980;-79
2023/11/10 00:34:44;;;;;;;;;;;;;;;8.79;73.68;98577.69;1088183;47;1010;-79
2023/11/10 00:35:44;;;;;;;;;;;;;;;8.83;73.69;98573.69;1088231;54;991;-79
2023/11/10 00:36:48;;;;;;;;;;;;;;;8.74;73.61;98572.88;1088294;47;962;-80
2023/11/10 00:37:50;;;;;;;;;;;;;;;8.79;73.65;98572.34;1088360;46;947;-81
2023/11/10 00:38:50;;;;;;;;;;;;;;;8.83;73.72;98568.38;1088342;54;964;-80
2023/11/10 00:39:59;;;;;;;;;;;;;;;8.87;73.56;98561.72;1088324;54;1393;-80
2023/11/10 00:41:00;;;;;;;;;;;;;;;8.89;73.40;98564.19;1088308;54;972;-80
2023/11/10 00:42:03;;;;;;;;;;;;;;;8.89;73.31;98566.84;1088206;47;1893;-80
2023/11/10 00:43:06;;;;;;;;;;;;;;;8.89;73.22;98567.69;1088236;47;995;-80
2023/11/10 00:44:10;;;;;;;;;;;;;;;8.83;73.17;98568.38;1088232;47;874;-82
2023/11/10 00:45:12;;;;;;;;;;;;;;;8.84;73.10;98570.03;1088661;47;949;-81
2023/11/10 00:46:19;;;;;;;;;;;;;;;8.89;72.92;98573.00;1088399;47;910;-80
2023/11/10 00:47:20;;;;;;;;;;;;;;;8.94;72.78;98561.00;1088537;47;950;-82
2023/11/10 00:48:24;;;;;;;;;;;;;;;8.93;72.77;98572.69;1088525;54;970;-80
2023/11/10 00:49:25;;;;;;;;;;;;;;;8.97;72.61;98571.34;1088410;54;1411;-82
2023/11/10 00:50:31;;;;;;;;;;;;;;;8.97;72.59;98574.00;1088459;47;872;-81
2023/11/10 00:51:32;;;;;;;;;;;;;;;8.93;72.44;98564.69;1088453;47;1013;-81
2023/11/10 00:52:37;;;;;;;;;;;;;;;8.93;72.42;98559.34;1088583;47;959;-81
2023/11/10 00:53:38;;;;;;;;;;;;;;;8.99;72.19;98558.66;1088330;47;872;-80
2023/11/10 00:54:41;;;;;;;;;;;;;;;8.94;72.35;98561.00;1088259;54;994;-82
2023/11/10 00:56:00;;;;;;;;;;;;;;;8.98;72.14;98562.31;1088193;47;980;-80
2023/11/10 00:57:08;;;;;;;;;;;;;;;8.88;72.12;98552.69;1088171;54;1005;-79
2023/11/10 00:58:15;;;;;;;;;;;;;;;8.86;72.44;98554.72;1088060;47;948;-80
2023/11/10 01:05:29;;;;;;;;;;;;;;;9.01;72.06;98538.84;1088117;47;877;-80
2023/11/10 01:06:32;;;;;;;;;;;;;;;9.02;72.20;98535.16;1088005;47;989;-80
2023/11/10 01:09:15;;;;;;;;;;;;;;;8.97;71.82;98534.03;1088092;47;950;-81
2023/11/10 01:11:14;;;;;;;;;;;;;;;9.01;71.58;98538.84;1088032;47;937;-81
2023/11/10 01:12:20;;;;;;;;;;;;;;;9.08;71.38;98528.31;1088111;47;868;-81
2023/11/10 01:13:33;;;;;;;;;;;;;;;;;;;;;
2023/11/10 01:14:57;;;;;;;;;;;;;;;9.08;71.91;98519.50;1088237;54;990;-82
2023/11/10 01:15:59;;;;;;;;;;;;;;;9.08;71.66;98525.63;1088103;54;922;-80
2023/11/10 01:17:04;;;;;;;;;;;;;;;9.12;71.70;98518.13;1088083;54;1022;-79
2023/11/10 01:18:05;;;;;;;;;;;;;;;9.07;71.33;98523.16;1088124;47;988;-80
2023/11/10 01:19:08;;;;;;;;;;;;;;;9.07;71.36;98526.63;1088002;47;1275;-80
2023/11/10 01:20:11;;;;;;;;;;;;;;;9.09;71.57;98518.50;1088535;54;1001;-80
2023/11/10 01:21:24;;;;;;;;;;;;;;;9.13;71.16;98517.97;1088449;47;1001;-80
2023/11/10 01:22:26;;;;;;;;;;;;;;;9.12;71.10;98516.31;1088444;54;1869;-80
2023/11/10 01:23:31;;;;;;;;;;;;;;;9.03;71.42;98518.16;1088421;47;937;-80
2023/11/10 01:24:34;;;;;;;;;;;;;;;8.98;71.71;98514.34;1088423;47;919;-80
2023/11/10 01:26:53;;;;;;;;;;;;;;;9.09;71.27;98529.16;1088316;47;925;-79
2023/11/10 01:27:54;;;;;;;;;;;;;;;9.11;71.54;98524.50;1087619;47;1006;-80
2023/11/10 01:29:00;;;;;;;;;;;;;;;9.09;71.37;98518.50;1087970;54;1244;-80
2023/11/10 01:30:01;;;;;;;;;;;;;;;9.07;71.75;98525.81;1088355;54;967;-80
2023/11/10 01:31:04;;;;;;;;;;;;;;;9.12;71.60;98524.31;1088394;46;962;-79
2023/11/10 01:32:05;;;;;;;;;;;;;;;9.11;71.49;98530.63;1087866;47;1211;-80
2023/11/10 01:33:09;;;;;;;;;;;;;;;9.09;71.85;98529.97;1088404;54;986;-80
2023/11/10 01:34:09;;;;;;;;;;;;;;;9.08;71.80;98522.97;1088332;47;985;-82
2023/11/10 01:35:13;;;;;;;;;;;;;;;9.13;71.51;98519.78;1088390;54;975;-78
2023/11/10 01:36:15;;;;;;;;;;;;;;;9.19;71.41;98511.94;1088209;54;966;-78
2023/11/10 01:37:19;;;;;;;;;;;;;;;9.23;71.29;98508.94;1088211;47;981;-79
2023/11/10 01:38:20;;;;;;;;;;;;;;;9.26;71.33;98505.94;1088398;54;979;-79
2023/11/10 01:39:24;;;;;;;;;;;;;;;9.24;71.32;98510.59;1088371;46;1403;-79
2023/11/10 01:40:25;;;;;;;;;;;;;;;9.25;71.58;98506.94;1088343;47;976;-79
2023/11/10 01:41:28;;;;;;;;;;;;;;;9.27;71.37;98499.56;1088356;54;896;-79
2023/11/10 01:42:28;;;;;;;;;;;;;;;9.30;71.08;98509.88;1088329;47;1846;-79
2023/11/10 01:43:32;;;;;;;;;;;;;;;9.28;71.38;98504.75;1088439;54;974;-79
2023/11/10 01:44:35;;;;;;;;;;;;;;;9.32;71.45;98505.22;1088369;54;1042;-80
2023/11/10 01:45:36;;;;;;;;;;;;;;;9.30;71.58;98509.88;1088307;54;966;-81
2023/11/10 01:46:43;;;;;;;;;;;;;;;9.34;71.26;98505.88;1088299;47;961;-80
2023/11/10 01:47:45;;;;;;;;;;;;;;;9.34;71.41;98505.88;1088313;47;989;-81
2023/11/10 01:48:48;;;;;;;;;;;;;;;9.33;71.19;98510.38;1088300;46;953;-80
2023/11/10 01:49:49;;;;;;;;;;;;;;;9.37;70.97;98502.84;1088382;46;1177;-79
2023/11/10 01:50:52;;;;;;;;;;;;;;;9.33;71.35;98496.22;1088293;46;1159;-78
2023/11/10 01:51:54;;;;;;;;;;;;;;;9.36;71.19;98493.19;1088303;47;1062;-80
2023/11/10 01:52:57;;;;;;;;;;;;;;;9.29;71.19;98494.91;1088358;47;989;-80
2023/11/10 01:53:59;;;;;;;;;;;;;;;9.29;71.33;98494.91;1088301;46;1172;-79
2023/11/10 01:55:03;;;;;;;;;;;;;;;9.31;71.76;98491.03;1088158;54;958;-80
2023/11/10 01:56:04;;;;;;;;;;;;;;;9.34;71.65;98496.03;1088192;47;933;-79
2023/11/10 01:57:09;;;;;;;;;;;;;;;9.35;71.50;98496.88;1088236;54;1018;-79
2023/11/10 01:58:11;;;;;;;;;;;;;;;9.37;71.68;98489.50;1087881;54;969;-80
2023/11/10 01:59:15;;;;;;;;;;;;;;;9.33;72.04;98493.56;1087958;54;1204;-82
2023/11/10 02:00:19;;;;;;;;;;;;;;;9.32;71.97;98491.88;1088258;47;936;-79
2023/11/10 02:01:23;;;;;;;;;;;;;;;9.19;72.27;98490.59;1088167;47;1029;-78
2023/11/10 02:02:24;;;;;;;;;;;;;;;9.13;73.00;98487.78;1088291;47;1851;-80
2023/11/10 02:03:30;;;;;;;;;;;;;;;9.19;72.87;98487.94;1088419;47;899;-82
2023/11/10 02:04:32;;;;;;;;;;;;;;;9.19;72.85;98492.47;1088429;47;905;-81
2023/11/10 02:05:38;;;;;;;;;;;;;;;9.20;72.74;98492.28;1088388;47;983;-82
2023/11/10 02:06:40;;;;;;;;;;;;;;;9.18;72.96;98491.59;1088513;54;970;-80
2023/11/10 02:07:45;;;;;;;;;;;;;;;9.17;73.25;98492.59;1088447;47;1020;-81
2023/11/10 02:08:46;;;;;;;;;;;;;;;9.20;73.12;98489.59;1088545;54;991;-80
2023/11/10 02:09:52;;;;;;;;;;;;;;;9.19;72.90;98489.78;1088521;47;1216;-82
2023/11/10 02:10:53;;;;;;;;;;;;;;;9.09;73.38;98492.66;1088403;47;994;-80
2023/11/10 02:11:56;;;;;;;;;;;;;;;9.15;73.25;98486.63;1088469;54;993;-80
2023/11/10 02:12:57;;;;;;;;;;;;;;;9.13;73.16;98483.31;1088507;47;968;-81
2023/11/10 02:14:01;;;;;;;;;;;;;;;9.17;73.26;98479.28;1088780;46;1018;-84
2023/11/10 02:15:06;;;;;;;;;;;;;;;9.21;73.05;98474.41;1088441;47;971;-79
2023/11/10 02:16:12;;;;;;;;;;;;;;;9.23;73.03;98477.75;1088588;54;1014;-79
2023/11/10 02:17:15;;;;;;;;;;;;;;;9.18;72.99;98477.47;1088487;47;954;-80
2023/11/10 02:18:19;;;;;;;;;;;;;;;9.21;72.75;98479.75;1088552;54;1005;-80
2023/11/10 02:19:34;;;;;;;;;;;;;;;9.23;73.02;98484.94;1088578;47;1385;-81
2023/11/10 02:20:39;;;;;;;;;;;;;;;9.27;72.54;98478.22;1088928;54;1022;-83
2023/11/10 02:21:44;;;;;;;;;;;;;;;9.27;72.76;98479.06;1088989;46;920;-83
2023/11/10 02:22:48;;;;;;;;;;;;;;;9.28;72.60;98475.41;1088768;54;1838;-83
2023/11/10 02:23:52;;;;;;;;;;;;;;;9.22;72.86;98473.41;1088965;54;958;-83
2023/11/10 02:24:57;;;;;;;;;;;;;;;9.24;72.56;98474.09;1088707;54;979;-81
2023/11/10 02:26:00;;;;;;;;;;;;;;;9.23;72.63;98474.28;1088635;47;986;-80
2023/11/10 02:27:05;;;;;;;;;;;;;;;9.17;73.07;98479.28;1088633;47;970;-82
2023/11/10 02:28:06;;;;;;;;;;;;;;;9.24;72.64;98467.94;1088618;54;950;-82
2023/11/10 02:29:10;;;;;;;;;;;;;;;9.24;72.47;98474.09;1088521;54;1350;-82
2023/11/10 02:30:11;;;;;;;;;;;;;;;9.28;72.63;98474.56;1088417;54;1019;-80
2023/11/10 02:31:15;;;;;;;;;;;;;;;9.24;72.49;98466.09;1088530;47;929;-82
2023/11/10 02:32:16;;;;;;;;;;;;;;;9.30;72.49;98473.41;1088556;46;1061;-81
2023/11/10 02:33:19;;;;;;;;;;;;;;;9.30;72.22;98472.56;1088583;47;981;-80
2023/11/10 02:34:20;;;;;;;;;;;;;;;9.31;72.48;98469.72;1088607;47;888;-83
2023/11/10 02:35:23;;;;;;;;;;;;;;;9.33;71.94;98473.03;1088665;54;910;-83
2023/11/10 02:36:25;;;;;;;;;;;;;;;9.26;72.17;98474.75;1088565;47;912;-80
2023/11/10 02:37:28;;;;;;;;;;;;;;;9.28;72.23;98472.75;1088647;47;913;-82
2023/11/10 02:38:32;;;;;;;;;;;;;;;9.33;72.33;98469.56;1088729;46;936;-81
2023/11/10 02:39:36;;;;;;;;;;;;;;;9.23;72.44;98459.09;1088631;54;1470;-82
2023/11/10 02:40:36;;;;;;;;;;;;;;;9.28;72.34;98471.91;1088493;54;961;-80
2023/11/10 02:41:42;;;;;;;;;;;;;;;9.32;71.93;98462.56;1088553;54;996;-80
2023/11/10 02:42:43;;;;;;;;;;;;;;;9.35;71.88;98471.03;1088819;46;1858;-81
2023/11/10 02:43:46;;;;;;;;;;;;;;;9.37;71.63;98468.19;1088632;54;930;-80
2023/11/10 02:44:47;;;;;;;;;;;;;;;9.25;71.85;98469.59;1088519;54;988;-81
2023/11/10 02:45:50;;;;;;;;;;;;;;;9.16;72.09;98460.81;1088661;54;1016;-81
2023/11/10 02:46:51;;;;;;;;;;;;;;;9.23;72.16;98472.41;1088661;54;942;-81
2023/11/10 02:47:54;;;;;;;;;;;;;;;9.29;72.07;98465.56;1088589;54;962;-82
2023/11/10 02:48:55;;;;;;;;;;;;;;;9.32;71.92;98462.56;1088436;47;999;-81
2023/11/10 02:49:55;;;;;;;;;;;;;;;9.34;71.45;98464.03;1088398;47;1217;-81
2023/11/10 02:50:59;;;;;;;;;;;;;;;9.36;71.66;98469.19;1088578;54;881;-81
2023/11/10 02:51:59;;;;;;;;;;;;;;;9.35;71.82;98464.88;1088659;54;1170;-81
2023/11/10 02:53:03;;;;;;;;;;;;;;;9.39;71.45;98465.34;1088518;47;1028;-81
2023/11/10 02:54:03;;;;;;;;;;;;;;;9.39;71.65;98463.50;1088511;54;1000;-82
2023/11/10 02:55:08;;;;;;;;;;;;;;;9.40;71.61;98467.84;1088495;47;1019;-81
2023/11/10 02:56:08;;;;;;;;;;;;;;;9.42;71.41;98465.84;1088487;47;883;-81
2023/11/10 02:57:15;;;;;;;;;;;;;;;9.33;71.89;98472.22;1088664;54;908;-82
2023/11/10 02:58:16;;;;;;;;;;;;;;;9.26;71.94;98473.94;1088592;47;986;-82
2023/11/10 02:59:19;;;;;;;;;;;;;;;9.30;72.13;98467.22;1088514;47;1271;-80
2023/11/10 03:00:20;;;;;;;;;;;;;;;9.31;71.86;98472.38;1088549;54;955;-80
2023/11/10 03:01:21;;;;;;;;;;;;;;;9.36;71.78;98471.84;1088334;47;1015;-81
2023/11/10 03:02:25;;;;;;;;;;;;;;;9.37;71.89;98473.50;1088280;47;1126;-81
2023/11/10 03:03:26;;;;;;;;;;;;;;;9.40;71.72;98461.69;1088357;54;1885;-79
2023/11/10 03:04:26;;;;;;;;;;;;;;;9.38;71.43;98469.84;1088312;46;956;-80
2023/11/10 03:05:30;;;;;;;;;;;;;;;9.34;71.48;98468.53;1088295;54;872;-81
2023/11/10 03:06:31;;;;;;;;;;;;;;;9.38;71.46;98469.84;1088353;47;976;-80
2023/11/10 03:07:34;;;;;;;;;;;;;;;9.41;71.22;98466.84;1088378;54;930;-82
2023/11/10 03:08:35;;;;;;;;;;;;;;;9.41;71.29;98471.31;1088383;47;876;-81
2023/11/10 03:09:40;;;;;;;;;;;;;;;9.46;71.41;98471.63;1088327;47;1142;-80
2023/11/10 03:10:40;;;;;;;;;;;;;;;9.38;71.62;98474.34;1088235;47;1107;-82
2023/11/10 03:11:44;;;;;;;;;;;;;;;9.41;71.49;98472.16;1088359;47;1088;-81
2023/11/10 03:12:48;;;;;;;;;;;;;;;9.43;71.21;98471.97;1088585;54;890;-80
2023/11/10 03:13:54;;;;;;;;;;;;;;;9.40;71.17;98467.84;1088405;47;1064;-81
2023/11/10 03:14:55;;;;;;;;;;;;;;;9.44;71.38;98468.31;1088305;47;1086;-81
2023/11/10 03:15:59;;;;;;;;;;;;;;;9.43;71.49;98470.16;1088456;54;965;-80
2023/11/10 03:17:00;;;;;;;;;;;;;;;9.39;71.30;98471.50;1088307;46;940;-81
2023/11/10 03:18:04;;;;;;;;;;;;;;;9.42;71.37;98465.84;1088356;47;985;-81
2023/11/10 03:19:04;;;;;;;;;;;;;;;9.41;71.17;98463.31;1088534;47;1467;-82
2023/11/10 03:20:09;;;;;;;;;;;;;;;9.45;71.13;98465.47;1088493;47;926;-81
2023/11/10 03:21:15;;;;;;;;;;;;;;;9.44;71.12;98454.97;1088490;46;997;-82
2023/11/10 03:22:19;;;;;;;;;;;;;;;9.39;71.29;98454.69;1088722;54;935;-81
2023/11/10 03:23:19;;;;;;;;;;;;;;;9.41;71.43;98455.31;1088604;54;1848;-82
2023/11/10 03:24:22;;;;;;;;;;;;;;;9.43;71.31;98455.97;1088618;54;939;-81
2023/11/10 03:25:23;;;;;;;;;;;;;;;9.36;71.66;98459.34;1088629;46;939;-80
2023/11/10 03:26:28;;;;;;;;;;;;;;;9.40;71.60;98456.34;1088518;47;968;-82
2023/11/10 03:27:29;;;;;;;;;;;;;;;9.44;71.35;98452.31;1088586;54;994;-82
2023/11/10 03:28:32;;;;;;;;;;;;;;;9.44;71.25;98446.97;1088697;47;955;-82
2023/11/10 03:29:35;;;;;;;;;;;;;;;9.41;71.31;98461.50;1088643;47;1379;-80
2023/11/10 03:30:37;;;;;;;;;;;;;;;9.42;71.67;98465.84;1088700;47;936;-82
2023/11/10 03:31:38;;;;;;;;;;;;;;;9.43;71.54;98455.97;1088521;47;917;-81
2023/11/10 03:32:41;;;;;;;;;;;;;;;9.41;71.58;98460.66;1088248;47;1150;-80
2023/11/10 03:33:42;;;;;;;;;;;;;;;9.38;71.60;98448.50;1088350;47;972;-80
2023/11/10 03:34:43;;;;;;;;;;;;;;;9.35;71.98;98452.38;1088430;47;920;-81
2023/11/10 03:35:47;;;;;;;;;;;;;;;9.28;71.86;98453.22;1088409;54;963;-81
2023/11/10 03:36:49;;;;;;;;;;;;;;;9.32;71.81;98452.69;1088658;54;975;-81
2023/11/10 03:37:52;;;;;;;;;;;;;;;9.39;71.90;98452.84;1088580;54;960;-81
2023/11/10 03:38:54;;;;;;;;;;;;;;;9.42;71.58;98451.66;1088582;47;992;-82
2023/11/10 03:39:55;;;;;;;;;;;;;;;9.45;71.57;98451.31;1088565;46;1187;-83
2023/11/10 03:40:59;;;;;;;;;;;;;;;9.45;71.22;98452.13;1088665;54;931;-79
2023/11/10 03:42:00;;;;;;;;;;;;;;;9.44;71.49;98447.81;1088476;54;958;-81
2023/11/10 03:43:03;;;;;;;;;;;;;;;9.46;71.48;98443.13;1088595;54;1855;-82
2023/11/10 03:44:07;;;;;;;;;;;;;;;9.49;71.37;98445.44;1088603;47;928;-81
2023/11/10 03:45:11;;;;;;;;;;;;;;;9.48;71.10;98440.28;1088564;47;1004;-83
2023/11/10 03:46:12;;;;;;;;;;;;;;;9.47;71.25;98452.78;1088584;54;887;-82
2023/11/10 03:47:13;;;;;;;;;;;;;;;9.43;71.39;98445.31;1088607;54;949;-82
2023/11/10 03:48:17;;;;;;;;;;;;;;;9.49;71.21;98445.44;1088456;54;980;-82
2023/11/10 03:49:18;;;;;;;;;;;;;;;9.50;71.14;98455.09;1088322;54;1372;-82
2023/11/10 03:50:21;;;;;;;;;;;;;;;9.52;70.84;98449.59;1088624;54;1127;-81
2023/11/10 03:51:21;;;;;;;;;;;;;;;9.50;70.83;98452.44;1088561;54;910;-80
2023/11/10 03:52:24;;;;;;;;;;;;;;;9.40;70.97;98451.84;1088646;47;947;-82
2023/11/10 03:53:27;;;;;;;;;;;;;;;9.48;70.78;98457.13;1088559;54;1018;-82
2023/11/10 03:54:29;;;;;;;;;;;;;;;9.48;70.99;98451.78;1088526;47;907;-83
2023/11/10 03:55:32;;;;;;;;;;;;;;;9.46;70.72;98450.31;1088607;54;987;-82
2023/11/10 03:56:35;;;;;;;;;;;;;;;9.44;71.07;98455.81;1088899;54;945;-83
2023/11/10 03:57:46;;;;;;;;;;;;;;;9.47;71.07;98458.13;1088802;54;958;-83
2023/11/10 03:58:48;;;;;;;;;;;;;;;9.52;70.81;98460.25;1088738;47;968;-81
2023/11/10 03:59:56;;;;;;;;;;;;;;;9.49;70.76;98456.09;1088678;54;1286;-83
2023/11/10 04:00:57;;;;;;;;;;;;;;;9.47;70.78;98455.44;1088658;54;1036;-82
2023/11/10 04:02:01;;;;;;;;;;;;;;;9.30;70.87;98451.22;1088783;54;906;-82
2023/11/10 04:03:11;;;;;;;;;;;;;;;9.41;70.88;98464.16;1088686;54;1848;-82
2023/11/10 04:04:18;;;;;;;;;;;;;;;9.40;70.96;98459.03;1088784;54;1015;-84
2023/11/10 04:05:19;;;;;;;;;;;;;;;9.41;70.86;98453.50;1089056;54;873;-82
2023/11/10 04:06:23;;;;;;;;;;;;;;;9.46;70.75;98450.31;1089115;54;1054;-83
2023/11/10 04:07:36;;;;;;;;;;;;;;;9.41;70.97;98453.50;1088839;47;948;-83
2023/11/10 04:08:39;;;;;;;;;;;;;;;9.43;71.15;98455.97;1088803;54;912;-81
2023/11/10 04:09:41;;;;;;;;;;;;;;;9.44;70.93;98458.50;1088610;47;1312;-82
2023/11/10 04:10:44;;;;;;;;;;;;;;;9.47;71.11;98460.78;1088778;54;1005;-80
2023/11/10 04:11:46;;;;;;;;;;;;;;;9.50;71.13;98451.59;1088680;54;993;-80
2023/11/10 04:12:49;;;;;;;;;;;;;;;9.52;71.11;98457.59;1088776;54;975;-83
2023/11/10 04:13:52;;;;;;;;;;;;;;;9.53;71.22;98451.25;1088669;54;945;-84
2023/11/10 04:15:06;;;;;;;;;;;;;;;9.43;71.66;98455.97;1088558;54;954;-83
2023/11/10 04:16:21;;;;;;;;;;;;;;;9.48;71.26;98457.13;1088720;47;860;-82
2023/11/10 04:17:25;;;;;;;;;;;;;;;9.46;71.74;98452.97;1088701;54;1040;-81
2023/11/10 04:18:27;;;;;;;;;;;;;;;9.47;71.68;98458.13;1088722;54;986;-81
2023/11/10 04:19:30;;;;;;;;;;;;;;;9.48;71.84;98450.97;1088842;54;1449;-81
2023/11/10 04:20:32;;;;;;;;;;;;;;;9.42;72.12;98446.31;1088740;54;1090;-82
2023/11/10 04:21:37;;;;;;;;;;;;;;;9.44;72.18;98450.50;1088675;54;1001;-81
2023/11/10 04:22:42;;;;;;;;;;;;;;;9.39;71.72;98449.34;1088747;54;966;-83
2023/11/10 04:23:45;;;;;;;;;;;;;;;9.41;71.99;98453.50;1088823;54;1858;-81
2023/11/10 04:24:54;;;;;;;;;;;;;;;9.39;72.20;98450.16;1088779;54;905;-83
2023/11/10 04:26:05;;;;;;;;;;;;;;;9.42;71.89;98446.31;1088751;47;870;-82
2023/11/10 04:27:06;;;;;;;;;;;;;;;9.40;71.99;98449.16;1088729;54;978;-83
2023/11/10 04:28:11;;;;;;;;;;;;;;;9.41;71.80;98442.81;1088705;54;986;-81
2023/11/10 04:29:12;;;;;;;;;;;;;;;9.44;71.87;98445.16;1088629;54;1270;-82
2023/11/10 04:30:20;;;;;;;;;;;;;;;9.41;71.31;98445.50;1088653;54;1068;-82
2023/11/10 04:31:33;;;;;;;;;;;;;;;9.40;71.58;98451.00;1088744;47;981;-82
2023/11/10 04:32:37;;;;;;;;;;;;;;;9.47;71.40;98455.44;1088771;47;993;-83
2023/11/10 04:33:39;;;;;;;;;;;;;;;9.45;71.16;98451.31;1087972;47;1281;-82
2023/11/10 04:34:43;;;;;;;;;;;;;;;9.41;71.47;98450.81;1088868;54;962;-82
2023/11/10 04:35:44;;;;;;;;;;;;;;;9.41;71.27;98453.50;1088673;54;1020;-83
2023/11/10 04:36:48;;;;;;;;;;;;;;;9.42;71.38;98447.16;1088722;54;992;-82
2023/11/10 04:38:00;;;;;;;;;;;;;;;9.39;71.25;98452.03;1088682;54;978;-84
2023/11/10 04:39:03;;;;;;;;;;;;;;;9.34;71.07;98452.53;1088709;54;1520;-81
2023/11/10 04:40:07;;;;;;;;;;;;;;;9.39;71.51;98460.84;1088689;47;973;-79
2023/11/10 04:41:10;;;;;;;;;;;;;;;9.39;71.12;98454.69;1088525;47;980;-80
2023/11/10 04:42:11;;;;;;;;;;;;;;;9.36;71.12;98443.34;1088478;47;940;-81
2023/11/10 04:43:11;;;;;;;;;;;;;;;9.36;71.03;98446.03;1088659;54;1860;-82
2023/11/10 04:44:15;;;;;;;;;;;;;;;9.36;71.50;98448.69;1088569;54;1130;-82
2023/11/10 04:45:24;;;;;;;;;;;;;;;9.39;71.07;98452.84;1088727;54;971;-82
2023/11/10 04:46:42;;;;;;;;;;;;;;;9.25;71.30;98448.28;1088602;54;962;-83
2023/11/10 04:47:42;;;;;;;;;;;;;;;9.30;71.55;98451.22;1088842;54;941;-82
2023/11/10 04:48:46;;;;;;;;;;;;;;;9.33;71.25;98458.88;1088655;47;893;-82
2023/11/10 04:49:46;;;;;;;;;;;;;;;9.31;71.24;98458.22;1088568;47;1214;-82
2023/11/10 04:50:50;;;;;;;;;;;;;;;9.34;71.16;98455.22;1088609;47;1024;-80
2023/11/10 04:51:52;;;;;;;;;;;;;;;9.37;71.08;98454.84;1088482;47;1138;-83
2023/11/10 04:52:55;;;;;;;;;;;;;;;9.38;70.93;98459.19;1088557;54;994;-82
2023/11/10 04:53:56;;;;;;;;;;;;;;;9.35;70.83;98459.53;1089120;47;1019;-83
2023/11/10 04:54:56;;;;;;;;;;;;;;;9.36;70.94;98461.19;1088928;54;925;-83
2023/11/10 04:55:59;;;;;;;;;;;;;;;9.33;71.11;98458.88;1088879;47;967;-82
2023/11/10 04:57:01;;;;;;;;;;;;;;;9.38;71.05;98456.50;1088787;46;963;-81
2023/11/10 04:58:04;;;;;;;;;;;;;;;9.38;70.85;98453.03;1088898;54;957;-85
2023/11/10 05:09:44;;;;;;;;;;;;;;;9.17;71.66;98462.47;1089005;54;1272;-82
2023/11/10 05:10:47;;;;;;;;;;;;;;;9.15;71.56;98470.66;1089335;54;907;-83
2023/11/10 05:11:54;;;;;;;;;;;;;;;9.18;71.44;98464.13;1089330;54;986;-82
2023/11/10 05:12:54;;;;;;;;;;;;;;;9.23;71.23;98471.59;1089229;54;956;-83
2023/11/10 05:14:08;;;;;;;;;;;;;;;9.12;71.49;98478.13;1089240;54;1013;-82
2023/11/10 05:15:12;;;;;;;;;;;;;;;9.11;71.84;98477.31;1089054;46;937;-83
2023/11/10 05:16:25;;;;;;;;;;;;;;;9.23;71.28;98479.59;1089146;54;941;-84
2023/11/10 05:17:28;;;;;;;;;;;;;;;9.19;71.45;98487.13;1089035;54;911;-84
2023/11/10 05:18:30;;;;;;;;;;;;;;;9.21;71.66;98485.09;1089155;54;992;-84
2023/11/10 05:19:33;;;;;;;;;;;;;;;9.19;71.37;98487.94;1088948;54;1452;-84
2023/11/10 05:20:35;;;;;;;;;;;;;;;9.13;71.69;98482.47;1089032;54;924;-84
2023/11/10 05:21:39;;;;;;;;;;;;;;;9.20;71.80;98475.44;1088699;46;982;-82
2023/11/10 05:22:41;;;;;;;;;;;;;;;9.14;72.05;98484.13;1089035;54;987;-84
2023/11/10 05:23:44;;;;;;;;;;;;;;;9.17;71.83;98473.94;1088761;47;1857;-82
2023/11/10 05:24:53;;;;;;;;;;;;;;;9.10;72.36;98480.97;1088901;46;899;-83
2023/11/10 05:25:56;;;;;;;;;;;;;;;9.15;72.46;98488.47;1088895;54;985;-84
2023/11/10 05:26:59;;;;;;;;;;;;;;;9.17;72.09;98481.94;1089038;54;986;-83
2023/11/10 05:28:02;;;;;;;;;;;;;;;9.16;72.49;98482.94;1088867;46;1212;-84
2023/11/10 05:29:03;;;;;;;;;;;;;;;9.09;72.30;98487.31;1088615;54;1318;-82
2023/11/10 05:30:07;;;;;;;;;;;;;;;8.97;73.07;98491.38;1088664;46;1510;-83
2023/11/10 05:31:30;;;;;;;;;;;;;;;8.97;72.78;98486.06;1088956;47;1511;-83
2023/11/10 05:39:35;;;;;;;;;;;;;;;9.02;73.08;98489.03;1088513;54;1168;-83
2023/11/10 05:40:39;;;;;;;;;;;;;;;8.95;73.26;98493.38;1089148;54;925;-82
2023/11/10 05:47:27;;;;;;;;;;;;;;;8.86;73.66;98500.56;1088473;54;1171;-84
2023/11/10 05:48:29;;;;;;;;;;;;;;;8.94;73.44;98499.72;1088976;47;979;-83
2023/11/10 05:49:33;;;;;;;;;;;;;;;8.80;73.30;98498.59;1088894;47;1358;-83
2023/11/10 05:50:39;;;;;;;;;;;;;;;8.80;73.66;98503.94;1088964;54;919;-83
2023/11/10 05:51:43;;;;;;;;;;;;;;;8.84;73.69;98506.06;1088964;54;1042;-84
2023/11/10 05:52:44;;;;;;;;;;;;;;;8.85;73.67;98507.75;1088875;54;983;-83
2023/11/10 05:53:47;;;;;;;;;;;;;;;8.85;73.72;98506.91;1088784;47;1044;-82
2023/11/10 05:54:50;;;;;;;;;;;;;;;8.92;73.54;98513.22;1088931;47;973;-82
2023/11/10 05:55:54;;;;;;;;;;;;;;;8.94;73.52;98510.38;1088952;47;948;-83
2023/11/10 05:57:00;;;;;;;;;;;;;;;8.90;73.69;98509.88;1088849;47;989;-83
2023/11/10 05:58:01;;;;;;;;;;;;;;;8.87;73.44;98511.06;1088919;47;952;-83
2023/11/10 05:59:06;;;;;;;;;;;;;;;8.92;73.29;98507.91;1088873;47;1388;-83
2023/11/10 06:00:08;;;;;;;;;;;;;;;8.89;73.29;98517.03;1088770;47;1006;-83
2023/11/10 06:01:11;;;;;;;;;;;;;;;8.93;72.79;98511.38;1088877;54;993;-81
2023/11/10 06:02:12;;;;;;;;;;;;;;;8.81;73.16;98516.25;1089028;54;914;-83
2023/11/10 06:03:16;;;;;;;;;;;;;;;8.80;73.51;98515.41;1088764;47;990;-83
2023/11/10 06:04:18;;;;;;;;;;;;;;;8.77;73.30;98517.59;1088789;54;1911;-81
2023/11/10 06:05:22;;;;;;;;;;;;;;;8.76;73.18;98514.09;1088333;54;914;-81
2023/11/10 06:06:24;;;;;;;;;;;;;;;8.82;73.15;98515.25;1088305;47;997;-80
2023/11/10 06:07:28;;;;;;;;;;;;;;;8.76;73.16;98519.44;1088590;54;1154;-82
2023/11/10 06:08:29;;;;;;;;;;;;;;;8.79;73.27;98516.41;1088636;47;942;-81
2023/11/10 06:09:30;;;;;;;;;;;;;;;8.74;73.25;98510.75;1088468;54;1207;-82
2023/11/10 06:10:34;;;;;;;;;;;;;;;8.78;73.11;98516.59;1088559;54;1122;-83
2023/11/10 06:11:38;;;;;;;;;;;;;;;8.83;72.62;98512.41;1088180;54;1034;-81
2023/11/10 06:12:42;;;;;;;;;;;;;;;8.88;72.57;98507.38;1088215;47;924;-80
2023/11/10 06:13:48;;;;;;;;;;;;;;;8.82;72.62;98512.59;1088337;54;1474;-82
2023/11/10 06:32:50;;;;;;;;;;;;;;;8.82;73.29;98540.06;1088302;54;1139;-81
2023/11/10 06:33:51;;;;;;;;;;;;;;;8.84;73.04;98537.22;1088949;54;985;-81